Time;durP1;ratioP1;P1;durP2;ratioP2;P2;SDS_P1;SDS_P2;PMS_P1;PMS_P2;Temp;Humidity;BMP_temperature;BMP_pressure;BME280_temperature;BME280_humidity;BME280_pressure;Samples;Min_cycle;Max_cycle;Signal;HPM_P1;HPM_P2
2022/05/18 00:01:31;;;;;;;;;;;;;;;29.08;64.22;101711.47;5065015;28;20041;-48
2022/05/18 00:03:57;;;;;;;17.30;9.33;;;;;;;28.83;66.12;101719.81;5068256;28;19912;-51
2022/05/18 00:06:22;;;;;;;24.92;9.77;;;;;;;28.55;68.58;101719.66;5058171;28;20030;-48
2022/05/18 00:08:48;;;;;;;26.60;10.43;;;;;;;28.64;68.97;101714.31;5070641;28;20085;-48
2022/05/18 00:11:17;;;;;;;20.75;11.70;;;;;;;28.38;71.61;101720.16;5062154;28;20037;-50
2022/05/18 00:13:45;;;;;;;24.27;10.97;;;;;;;28.57;69.84;101720.16;5062960;28;20035;-52
2022/05/18 00:16:11;;;;;;;23.10;10.03;;;;;;;28.94;68.58;101717.72;5069915;28;20041;-50
2022/05/18 00:18:37;;;;;;;26.23;10.67;;;;;;;28.86;69.16;101719.22;5057956;28;20040;-54
2022/05/18 00:21:04;;;;;;;21.60;10.13;;;;;;;28.98;68.23;101718.75;5068493;28;20029;-52
2022/05/18 00:23:30;;;;;;;16.20;10.50;;;;;;;28.84;69.14;101723.41;5064066;28;20033;-50
2022/05/18 00:25:56;;;;;;;;;;;;;;;28.67;69.75;101723.88;5061563;28;20112;-50
2022/05/18 00:28:21;;;;;;;20.47;10.63;;;;;;;28.46;71.32;101722.25;5071094;28;19913;-51
2022/05/18 00:30:48;;;;;;;;;;;;;;;28.38;71.44;101717.41;5058675;28;20033;-49
2022/05/18 00:33:14;;;;;;;21.67;10.37;;;;;;;28.45;71.10;101720.59;5069356;28;19920;-53
2022/05/18 00:35:41;;;;;;;21.15;10.90;;;;;;;27.94;74.65;101726.72;5069813;28;20037;-51
2022/05/18 00:38:08;;;;;;;21.43;10.77;;;;;;;28.21;74.21;101720.63;5063959;28;20063;-50
2022/05/18 00:40:36;;;;;;;23.13;11.37;;;;;;;28.18;73.82;101719.31;5075034;28;20039;-53
2022/05/18 00:43:02;;;;;;;24.40;11.13;;;;;;;28.38;72.59;101719.34;5064039;28;20480;-50
2022/05/18 00:45:28;;;;;;;21.13;11.70;;;;;;;27.99;75.87;101721.97;5068974;28;20160;-50
2022/05/18 00:47:54;;;;;;;;;;;;;;;27.96;77.06;101722.56;5071788;28;20040;-48
2022/05/18 00:50:27;;;;;;;21.57;13.53;;;;;;;27.54;81.62;101727.69;5061572;28;19917;-51
2022/05/18 00:53:07;;;;;;;20.63;11.63;;;;;;;27.39;84.62;101722.28;5042963;28;20089;-52
2022/05/18 00:55:37;;;;;;;20.93;12.93;;;;;;;27.75;81.74;101730.22;5068210;28;20039;-52
2022/05/18 00:58:11;;;;;;;22.93;12.93;;;;;;;27.86;79.68;101733.69;5064118;28;20056;-52
2022/05/18 01:00:38;;;;;;;23.50;13.47;;;;;;;27.22;86.43;101731.78;5060319;28;20037;-47
2022/05/18 01:03:10;;;;;;;23.80;12.87;;;;;;;27.86;80.90;101730.94;5072040;28;20039;-52
2022/05/18 01:05:39;;;;;;;21.17;12.50;;;;;;;27.34;83.64;101734.16;5058275;28;20064;-49
2022/05/18 01:08:05;;;;;;;21.30;12.60;;;;;;;27.65;84.07;101730.31;5072506;28;20048;-54
2022/05/18 01:10:31;;;;;;;29.08;14.18;;;;;;;27.80;80.01;101735.66;5061180;28;20041;-48
2022/05/18 01:12:59;;;;;;;28.00;12.95;;;;;;;28.05;79.51;101736.47;5073193;28;20036;-53
2022/05/18 01:15:25;;;;;;;26.73;13.17;;;;;;;27.63;81.99;101731.44;5066549;28;20045;-54
2022/05/18 01:17:53;;;;;;;;;;;;;;;27.93;79.04;101738.84;5065835;28;20059;-52
2022/05/18 01:20:22;;;;;;;21.37;12.50;;;;;;;27.89;78.90;101731.16;5057639;28;19936;-51
2022/05/18 01:23:07;;;;;;;20.57;12.97;;;;;;;28.27;76.81;101730.47;5045312;28;20100;-50
2022/05/18 01:26:07;;;;;;;22.40;13.47;;;;;;;28.13;77.53;101735.81;5067699;28;20034;-51
2022/05/18 01:28:38;;;;;;;24.17;12.67;;;;;;;28.46;74.74;101735.16;5073619;28;20064;-49
2022/05/18 01:31:04;;;;;;;22.33;12.43;;;;;;;28.68;72.03;101737.34;5063295;28;20033;-52
2022/05/18 01:33:32;;;;;;;19.90;13.07;;;;;;;28.55;73.21;101730.66;5068006;28;20041;-52
2022/05/18 01:35:58;;;;;;;22.43;13.27;;;;;;;28.54;73.00;101728.19;5070582;28;20033;-48
2022/05/18 01:38:24;;;;;;;;;;;;;;;28.13;75.67;101732.28;5058999;28;20093;-53
2022/05/18 01:41:15;;;;;;;23.73;12.80;;;;;;;28.00;76.84;101734.59;5075130;28;19948;-50
2022/05/18 01:43:54;;;;;;;22.07;13.57;;;;;;;28.29;75.52;101733.75;5077178;28;20114;-50
2022/05/18 01:46:21;;;;;;;21.80;13.07;;;;;;;27.63;81.67;101731.44;5061108;28;20036;-52
2022/05/18 01:48:50;;;;;;;22.67;12.80;;;;;;;27.52;83.31;101729.91;5043592;28;20025;-49
2022/05/18 01:51:38;;;;;;;20.53;12.97;;;;;;;27.45;83.00;101730.22;5069760;28;20050;-53
2022/05/18 01:54:03;;;;;;;26.27;12.90;;;;;;;27.22;86.19;101730.97;5071001;28;20059;-55
2022/05/18 01:56:28;;;;;;;26.02;14.50;;;;;;;27.28;85.29;101733.38;5060387;28;20041;-55
2022/05/18 01:58:54;;;;;;;26.40;13.23;;;;;;;27.55;83.38;101729.31;5072876;28;20116;-54
2022/05/18 02:01:20;;;;;;;23.17;13.80;;;;;;;27.41;83.61;101731.06;5064840;28;20041;-54
2022/05/18 02:03:47;;;;;;;23.83;13.43;;;;;;;27.62;81.54;101726.25;5065491;28;20057;-52
2022/05/18 02:06:14;;;;;;;25.53;13.50;;;;;;;27.40;83.31;101734.91;5071868;28;20063;-52
2022/05/18 02:08:41;;;;;;;24.50;13.23;;;;;;;27.32;83.69;101731.69;5060144;28;20040;-48
2022/05/18 02:11:20;;;;;;;22.77;13.10;;;;;;;27.15;86.60;101731.28;5070927;28;20053;-50
2022/05/18 02:13:46;;;;;;;22.97;12.37;;;;;;;27.15;85.90;101731.28;5068069;28;20036;-50
2022/05/18 02:16:12;;;;;;;22.67;13.52;;;;;;;27.18;86.38;101723.31;5061789;28;20097;-53
2022/05/18 02:18:37;;;;;;;19.63;12.07;;;;;;;27.54;83.89;101721.34;5073224;28;20087;-50
2022/05/18 02:21:05;;;;;;;22.40;12.70;;;;;;;26.97;87.25;101724.56;5062066;28;20041;-55
2022/05/18 02:23:32;;;;;;;20.97;12.40;;;;;;;26.84;89.22;101721.31;5066952;28;20041;-52
2022/05/18 02:25:58;;;;;;;20.48;12.77;;;;;;;26.73;90.24;101715.06;5069381;28;20055;-54
2022/05/18 02:28:25;;;;;;;26.67;13.27;;;;;;;26.93;87.85;101718.03;5059752;28;20033;-54
2022/05/18 02:30:50;;;;;;;21.88;12.88;;;;;;;26.89;88.80;101715.00;5072655;28;20270;-50
2022/05/18 02:33:16;;;;;;;;;;;;;;;27.31;85.09;101708.09;5064073;28;20109;-53
2022/05/18 02:35:42;;;;;;;25.97;13.20;;;;;;;26.76;89.80;101709.06;5054091;28;19937;-52
2022/05/18 02:38:09;;;;;;;22.77;14.30;;;;;;;26.76;90.00;101717.28;5065252;28;20106;-52
2022/05/18 02:40:35;;;;;;;26.13;13.30;;;;;;;26.71;91.08;101705.50;5059751;28;20041;-49
2022/05/18 02:43:00;;;;;;;23.52;12.48;;;;;;;26.56;93.19;101706.44;5071257;28;20040;-51
2022/05/18 02:45:26;;;;;;;19.65;12.32;;;;;;;26.95;88.86;101710.31;5064798;28;20142;-53
2022/05/18 02:47:53;;;;;;;28.30;14.48;;;;;;;26.94;88.51;101709.47;5064070;28;20057;-52
2022/05/18 02:50:19;;;;;;;28.83;13.87;;;;;;;26.99;87.69;101705.88;5071729;28;20052;-52
2022/05/18 02:52:45;;;;;;;;;;;;;;;26.81;88.25;101707.38;5059749;28;20033;-53
2022/05/18 02:57:56;;;;;;;18.37;12.43;;;;;;;27.10;83.03;101707.44;5068460;28;20044;-50
2022/05/18 03:00:21;;;;;;;21.38;12.68;;;;;;;28.12;76.87;101716.88;5059748;28;20302;-50
2022/05/18 03:02:47;;;;;;;28.65;13.65;;;;;;;26.68;86.52;101715.13;5072363;28;20029;-51
2022/05/18 03:05:13;;;;;;;23.52;13.10;;;;;;;26.68;87.88;101711.56;5062395;28;20092;-54
2022/05/18 03:07:40;;;;;;;20.77;12.57;;;;;;;26.52;89.40;101725.38;5065552;28;20036;-54
2022/05/18 03:10:06;;;;;;;22.55;13.88;;;;;;;26.54;88.31;101730.59;5069820;28;20033;-54
2022/05/18 03:12:32;;;;;;;21.47;12.20;;;;;;;26.97;83.66;101714.41;5058933;28;20048;-54
2022/05/18 03:14:57;;;;;;;25.00;13.52;;;;;;;26.88;83.19;101724.34;5071058;28;20093;-54
2022/05/18 03:17:23;;;;;;;28.38;12.60;;;;;;;26.18;89.74;101726.88;5062767;28;20037;-53
2022/05/18 03:19:48;;;;;;;25.77;11.80;;;;;;;26.47;87.19;101728.94;5063996;28;20068;-53
2022/05/18 03:24:57;;;;;;;47.10;25.50;;;;;;;26.03;91.15;101735.13;5044345;28;20044;-54
2022/05/18 03:27:23;;;;;;;21.67;12.80;;;;;;;26.22;90.24;101731.81;5066524;28;20306;-52
2022/05/18 03:29:48;;;;;;;24.58;12.40;;;;;;;25.75;95.31;101730.00;5066611;28;20037;-53
2022/05/18 03:32:15;;;;;;;22.58;13.13;;;;;;;26.45;87.24;101736.63;5060348;28;20048;-52
2022/05/18 03:34:41;;;;;;;23.10;13.53;;;;;;;26.24;89.05;101735.09;5071555;28;20029;-51
2022/05/18 03:37:07;;;;;;;24.27;12.90;;;;;;;26.32;87.95;101745.50;5060381;28;20303;-53
2022/05/18 03:39:33;;;;;;;29.27;14.07;;;;;;;26.06;89.66;101748.28;5065845;28;20317;-50
2022/05/18 03:41:59;;;;;;;18.73;12.52;;;;;;;26.20;88.38;101748.56;5067711;28;20075;-49
2022/05/18 03:44:25;;;;;;;23.88;13.25;;;;;;;25.83;90.22;101747.78;5058591;28;20037;-51
2022/05/18 03:46:50;;;;;;;32.63;18.38;;;;;;;26.25;86.61;101753.19;5071430;28;20084;-50
2022/05/18 03:49:16;;;;;;;31.00;17.42;;;;;;;26.05;89.05;101752.09;5061649;28;20040;-51
2022/05/18 03:51:42;;;;;;;18.92;11.95;;;;;;;26.51;83.07;101755.81;5046999;28;20037;-52
2022/05/18 03:54:07;;;;;;;39.38;20.73;;;;;;;26.63;81.79;101753.56;5068824;28;20041;-50
2022/05/18 03:56:33;;;;;;;26.15;12.60;;;;;;;26.73;80.42;101761.72;5058093;28;20044;-51
2022/05/18 03:58:59;;;;;;;19.23;11.23;;;;;;;26.62;81.46;101757.41;5070552;28;20029;-50
2022/05/18 04:01:26;;;;;;;27.73;16.13;;;;;;;26.75;80.33;101769.69;5062788;28;20124;-49
2022/05/18 04:03:52;;;;;;;20.93;12.43;;;;;;;26.49;82.26;101767.88;5062829;28;20040;-51
2022/05/18 04:06:18;;;;;;;22.42;13.57;;;;;;;26.44;82.86;101762.41;5069666;28;20278;-50
2022/05/18 04:08:44;;;;;;;36.25;19.92;;;;;;;26.46;83.09;101764.91;5057719;28;20051;-52
2022/05/18 04:11:11;;;;;;;21.92;13.73;;;;;;;26.70;80.16;101765.03;5068746;28;20034;-52
2022/05/18 04:13:36;;;;;;;29.03;13.23;;;;;;;26.26;83.43;101761.13;5064359;28;20037;-50
2022/05/18 04:16:02;;;;;;;35.55;17.63;;;;;;;26.59;80.91;101763.47;5061295;28;20275;-53
2022/05/18 04:18:28;;;;;;;20.90;14.05;;;;;;;26.99;77.94;101760.78;5070915;28;20033;-55
2022/05/18 04:20:55;;;;;;;24.88;13.32;;;;;;;26.59;80.33;101768.94;5058285;28;20068;-51
2022/05/18 04:23:23;;;;;;;22.13;13.47;;;;;;;26.73;79.11;101772.69;5066949;28;20108;-52
2022/05/18 04:25:49;;;;;;;19.93;11.57;;;;;;;26.29;82.62;101766.06;5065702;28;20033;-49
2022/05/18 04:28:15;;;;;;;;;;;;;;;26.64;79.33;101766.16;5059817;28;20037;-52
2022/05/18 04:30:43;;;;;;;19.10;11.33;;;;;;;26.84;77.92;101772.66;5070823;28;19924;-52
2022/05/18 04:33:11;;;;;;;18.53;10.60;;;;;;;26.29;81.20;101776.19;5060171;28;20258;-50
2022/05/18 04:35:36;;;;;;;16.77;11.53;;;;;;;26.52;80.85;101762.94;5065044;28;20030;-52
2022/05/18 04:38:02;;;;;;;17.93;11.07;;;;;;;26.03;85.12;101770.75;5067244;28;20318;-49
2022/05/18 04:40:27;;;;;;;23.00;11.90;;;;;;;25.96;85.73;101767.50;5057797;28;20033;-53
2022/05/18 04:42:53;;;;;;;23.53;11.57;;;;;;;25.84;86.26;101770.53;5041142;28;20036;-51
2022/05/18 04:45:21;;;;;;;24.17;11.98;;;;;;;25.82;87.06;101768.06;5067384;28;20274;-50
2022/05/18 04:47:47;;;;;;;22.63;12.43;;;;;;;25.86;85.69;101771.91;5064956;28;20041;-49
2022/05/18 04:50:13;;;;;;;25.40;12.02;;;;;;;26.01;86.00;101770.22;5059431;28;20290;-51
2022/05/18 04:52:38;;;;;;;20.30;11.82;;;;;;;26.02;83.98;101777.34;5070819;28;20049;-54
2022/05/18 04:55:06;;;;;;;24.47;12.83;;;;;;;25.82;85.61;101779.00;5054527;28;20087;-51
2022/05/18 04:57:31;;;;;;;19.67;11.70;;;;;;;25.61;90.31;101790.03;5062004;28;20285;-54
2022/05/18 04:59:57;;;;;;;22.08;12.02;;;;;;;25.43;92.84;101787.78;5061840;28;20048;-53
2022/05/18 05:02:23;;;;;;;23.58;13.02;;;;;;;25.16;96.08;101794.34;5069131;28;20033;-50
2022/05/18 05:04:48;;;;;;;19.40;12.20;;;;;;;25.25;95.39;101792.69;5057584;28;20055;-53
2022/05/18 05:07:14;;;;;;;21.67;13.90;;;;;;;25.67;91.75;101792.75;5068054;28;20033;-55
2022/05/18 05:09:39;;;;;;;21.70;13.18;;;;;;;26.02;87.93;101810.22;5063828;28;20037;-52
2022/05/18 05:12:06;;;;;;;31.90;14.15;;;;;;;26.10;87.44;101806.09;5061091;28;20064;-51
2022/05/18 05:14:36;;;;;;;20.17;13.30;;;;;;;26.11;87.03;101808.56;5070516;28;20096;-55
2022/05/18 05:17:02;;;;;;;23.30;14.07;;;;;;;26.38;84.77;101817.56;5058719;28;20029;-53
2022/05/18 05:19:28;;;;;;;;;;;;;;;26.74;82.29;101822.91;5069049;28;20079;-48
2022/05/18 05:21:53;;;;;;;19.93;12.30;;;;;;;26.94;81.99;101823.94;5069198;28;19916;-53
2022/05/18 05:24:18;;;;;;;26.27;14.00;;;;;;;27.46;77.51;101824.41;5062725;28;20040;-50
2022/05/18 05:26:44;;;;;;;23.77;13.20;;;;;;;27.53;76.67;101826.84;5069484;28;20037;-48
2022/05/18 05:29:11;;;;;;;21.42;12.95;;;;;;;27.34;78.68;101824.78;5071210;28;20044;-54
2022/05/18 05:31:38;;;;;;;19.73;11.77;;;;;;;26.99;80.85;101832.97;5076748;28;20105;-53
2022/05/18 05:34:04;;;;;;;26.00;12.87;;;;;;;27.30;77.81;101838.25;5064700;28;20029;-55
2022/05/18 05:36:30;;;;;;;;;;;;;;;27.16;79.88;101829.00;5074470;28;20048;-52
2022/05/18 05:38:57;;;;;;;27.17;12.93;;;;;;;27.74;74.53;101841.25;5060511;28;19912;-52
2022/05/18 05:41:24;;;;;;;18.70;11.95;;;;;;;27.86;73.41;101840.88;5070132;28;20048;-53
2022/05/18 05:43:50;;;;;;;22.27;12.40;;;;;;;28.00;71.80;101843.75;5068130;28;20037;-53
2022/05/18 05:46:16;;;;;;;28.60;12.50;;;;;;;27.92;71.99;101842.44;5067484;28;20080;-55
2022/05/18 05:48:44;;;;;;;19.17;12.70;;;;;;;27.73;72.91;101842.34;5062049;28;20064;-52
2022/05/18 05:51:12;;;;;;;23.23;12.40;;;;;;;27.48;74.32;101833.19;5072997;28;20069;-54
2022/05/18 05:53:42;;;;;;;23.47;12.80;;;;;;;27.79;73.24;101838.44;5070740;28;20028;-53
2022/05/18 05:56:08;;;;;;;17.87;12.07;;;;;;;27.59;74.11;101829.28;5060689;28;20108;-54
2022/05/18 05:58:36;;;;;;;18.07;12.33;;;;;;;27.23;77.70;101843.25;5069936;28;20070;-54
2022/05/18 06:01:05;;;;;;;19.33;12.23;;;;;;;27.99;71.91;101836.63;5072121;28;20048;-55
2022/05/18 06:03:31;;;;;;;18.67;12.13;;;;;;;28.44;68.54;101833.66;5075662;28;20068;-52
2022/05/18 06:05:56;;;;;;;;;;;;;;;27.81;70.57;101840.91;5074588;28;20029;-55
2022/05/18 06:08:23;;;;;;;22.00;12.53;;;;;;;27.90;70.85;101841.91;5071517;28;19917;-55
2022/05/18 06:10:49;;;;;;;19.33;12.57;;;;;;;27.93;71.74;101841.34;5070262;28;20029;-55
2022/05/18 06:13:15;;;;;;;24.60;11.63;;;;;;;27.65;72.90;101843.78;5074167;28;20109;-53
2022/05/18 06:15:40;;;;;;;20.85;13.32;;;;;;;27.79;73.40;101849.44;5071388;28;20044;-53
2022/05/18 06:18:06;;;;;;;18.42;12.10;;;;;;;27.93;72.45;101848.78;5070362;28;20060;-54
2022/05/18 06:20:32;;;;;;;18.73;12.15;;;;;;;28.33;70.76;101854.97;5068405;28;20040;-55
2022/05/18 06:22:58;;;;;;;23.27;14.90;;;;;;;28.12;71.87;101857.91;5062567;28;20037;-49
2022/05/18 06:25:24;;;;;;;21.20;12.87;;;;;;;28.23;72.31;101853.16;5066555;28;20048;-50
2022/05/18 06:27:50;;;;;;;21.80;12.48;;;;;;;28.11;72.11;101853.53;5074390;28;20037;-55
2022/05/18 06:30:16;;;;;;;23.00;13.95;;;;;;;28.02;74.24;101858.81;5074431;28;20052;-51
2022/05/18 06:32:41;;;;;;;20.80;14.05;;;;;;;28.16;72.31;101864.53;5075320;28;20092;-56
2022/05/18 06:35:07;;;;;;;23.35;13.35;;;;;;;28.33;69.86;101863.22;5070646;28;20044;-53
2022/05/18 06:37:33;;;;;;;21.40;14.45;;;;;;;28.47;68.50;101863.34;5074929;28;20029;-51
2022/05/18 06:40:02;;;;;;;24.30;14.40;;;;;;;28.77;66.74;101856.66;5067147;28;20052;-50
2022/05/18 06:42:28;;;;;;;22.80;14.37;;;;;;;28.85;66.93;101868.16;5069287;28;20093;-52
2022/05/18 06:44:54;;;;;;;23.85;13.80;;;;;;;29.02;66.03;101879.47;5074494;28;20048;-53
2022/05/18 06:47:20;;;;;;;22.57;14.73;;;;;;;28.35;68.23;101872.00;5063784;28;20032;-55
2022/05/18 06:49:47;;;;;;;26.08;15.05;;;;;;;28.00;69.68;101887.72;5063625;28;20077;-50
2022/05/18 06:52:13;;;;;;;26.77;15.37;;;;;;;28.29;67.30;101884.19;5069566;28;20025;-55
2022/05/18 06:54:39;;;;;;;;;;;;;;;27.91;67.29;101890.28;5068761;28;20044;-51
2022/05/18 06:57:05;;;;;;;22.57;14.33;;;;;;;27.83;68.38;101890.91;5067723;28;19913;-52
2022/05/18 06:59:30;;;;;;;23.98;14.63;;;;;;;27.52;69.82;101905.69;5074530;28;20100;-50
2022/05/18 07:01:56;;;;;;;32.78;15.93;;;;;;;27.79;68.53;101903.56;5064444;28;20036;-49
2022/05/18 07:04:22;;;;;;;28.30;15.43;;;;;;;27.82;68.88;101909.31;5068283;28;20041;-53
2022/05/18 07:06:47;;;;;;;;;;;;;;;27.82;68.14;101914.81;5074642;28;20029;-53
2022/05/18 07:09:16;;;;;;;25.30;15.40;;;;;;;28.06;67.09;101914.06;5069127;28;19904;-52
2022/05/18 07:11:43;;;;;;;29.17;17.10;;;;;;;28.14;66.00;101910.72;5065020;28;20033;-57
2022/05/18 07:14:09;;;;;;;27.97;15.37;;;;;;;29.07;62.75;101919.88;5073101;28;20052;-50
2022/05/18 07:16:35;;;;;;;32.60;15.68;;;;;;;28.75;63.62;101924.94;5059960;28;20052;-48
2022/05/18 07:19:01;;;;;;;;;;;;;;;28.79;62.96;101929.84;5070454;28;20036;-55
2022/05/18 07:21:28;;;;;;;26.57;15.47;;;;;;;29.43;60.12;101926.84;5072522;28;19952;-54
2022/05/18 07:23:53;;;;;;;;;;;;;;;29.54;58.54;101927.53;5063951;28;20033;-49
2022/05/18 07:26:21;;;;;;;22.47;14.23;;;;;;;28.94;62.47;101926.94;5062982;28;19931;-55
2022/05/18 07:28:47;;;;;;;25.03;15.37;;;;;;;28.48;65.96;101931.00;5072646;28;20033;-53
2022/05/18 07:31:13;;;;;;;26.37;16.33;;;;;;;28.96;66.21;101927.47;5063347;28;20044;-54
2022/05/18 07:33:39;;;;;;;;;;;;;;;29.13;65.34;101929.72;5065256;28;20052;-51
2022/05/18 07:36:05;;;;;;;29.57;17.53;;;;;;;29.00;65.89;101928.50;5065465;28;19916;-54
2022/05/18 07:38:32;;;;;;;31.83;18.63;;;;;;;28.60;69.20;101930.59;5070511;28;20082;-51
2022/05/18 07:40:59;;;;;;;28.50;17.67;;;;;;;29.56;65.19;101925.28;5060174;28;20036;-53
2022/05/18 07:43:25;;;;;;;28.13;17.70;;;;;;;28.85;68.35;101928.72;5073294;28;20054;-51
2022/05/18 07:45:52;;;;;;;;;;;;;;;28.85;70.60;101929.53;5068486;28;20020;-52
2022/05/18 07:48:19;;;;;;;29.33;16.33;;;;;;;29.08;68.70;101937.25;5064196;28;19968;-54
2022/05/18 07:50:45;;;;;;;27.80;17.00;;;;;;;29.36;67.50;101935.47;5069138;28;20037;-53
2022/05/18 07:53:11;;;;;;;30.30;17.10;;;;;;;29.55;65.34;101941.00;5072846;28;20036;-56
2022/05/18 07:55:37;;;;;;;26.33;17.47;;;;;;;29.60;65.69;101938.19;5063680;28;20032;-52
2022/05/18 07:58:09;;;;;;;29.42;18.38;;;;;;;29.33;67.89;101939.66;5069001;28;20108;-53
2022/05/18 08:00:34;;;;;;;30.43;17.70;;;;;;;30.24;63.55;101936.06;5055257;28;20052;-56
2022/05/18 08:03:00;;;;;;;30.40;16.67;;;;;;;31.11;59.81;101949.28;5053924;28;20037;-54
2022/05/18 08:05:28;;;;;;;81.18;45.70;;;;;;;30.38;63.31;101956.19;5057706;28;20040;-51
2022/05/18 08:07:53;;;;;;;45.70;25.80;;;;;;;30.52;62.73;101949.91;5061061;28;20029;-56
2022/05/18 08:15:49;;;;;;;46.97;26.33;;;;;;;30.89;63.54;101945.31;5070515;28;20107;-54
2022/05/18 08:18:17;;;;;;;32.93;19.40;;;;;;;30.22;65.57;101943.78;5064379;28;20037;-54
2022/05/18 08:20:45;;;;;;;47.17;26.60;;;;;;;30.70;63.68;101945.41;5064832;28;20083;-55
2022/05/18 08:23:10;;;;;;;57.37;30.83;;;;;;;31.87;56.61;101958.91;5066866;28;20040;-52
2022/05/18 08:25:36;;;;;;;;;;;;;;;30.70;61.84;101946.25;5058449;28;20871;-52
2022/05/18 08:28:02;;;;;;;35.00;20.03;;;;;;;31.11;60.89;101952.03;5066870;28;19921;-54
2022/05/18 08:30:30;;;;;;;;;;;;;;;31.37;57.94;101962.53;5064972;28;20040;-52
2022/05/18 08:32:59;;;;;;;28.27;16.33;;;;;;;31.02;60.63;101963.81;5062735;28;19947;-55
2022/05/18 08:35:28;;;;;;;28.13;16.37;;;;;;;31.25;61.37;101963.91;5063901;28;20076;-52
2022/05/18 08:37:55;;;;;;;27.70;14.53;;;;;;;30.83;61.81;101955.66;5063231;28;20037;-52
2022/05/18 08:40:28;;;;;;;24.43;15.47;;;;;;;31.72;57.00;101974.75;5066812;28;20106;-54
2022/05/18 08:42:59;;;;;;;22.40;14.77;;;;;;;31.51;59.44;101974.38;5072447;28;20041;-56
2022/05/18 08:45:29;;;;;;;26.07;15.93;;;;;;;31.23;61.14;101963.41;5071848;28;20068;-55
2022/05/18 08:48:05;;;;;;;28.57;16.73;;;;;;;31.28;62.45;101955.00;5067180;28;20033;-56
2022/05/18 08:50:32;;;;;;;31.17;16.85;;;;;;;31.82;58.97;101962.63;5060867;28;20072;-55
2022/05/18 08:53:10;;;;;;;28.43;15.87;;;;;;;31.83;58.76;101967.03;5067447;28;20037;-53
2022/05/18 08:55:58;;;;;;;26.80;16.10;;;;;;;31.90;57.98;101963.81;5069086;28;20045;-52
2022/05/18 08:58:27;;;;;;;;;;;;;;;32.68;54.77;101970.91;5065314;28;20025;-53
2022/05/18 09:00:58;;;;;;;22.03;11.07;;;;;;;32.41;54.89;101970.00;5061457;28;19932;-53
2022/05/18 09:03:32;;;;;;;20.20;10.50;;;;;;;32.74;53.08;101966.88;5076341;28;20025;-55
2022/05/18 09:06:15;;;;;;;13.03;7.00;;;;;;;31.80;55.89;101978.72;5065942;28;20034;-56
2022/05/18 09:08:47;;;;;;;14.43;6.93;;;;;;;32.02;53.81;101975.13;5069925;28;20045;-52
2022/05/18 09:11:16;;;;;;;11.93;6.10;;;;;;;32.16;53.04;101972.28;5071358;28;20040;-52
2022/05/18 09:13:42;;;;;;;51.67;28.43;;;;;;;32.85;51.67;101977.66;5067616;28;20025;-54
2022/05/18 09:16:16;;;;;;;;;;;;;;;32.07;52.54;101976.97;5064244;28;20029;-52
2022/05/18 09:18:52;;;;;;;41.90;22.63;;;;;;;33.17;50.76;101978.41;5074070;28;19980;-54
2022/05/18 09:21:35;;;;;;;75.00;44.05;;;;;;;34.26;47.46;101980.53;5068594;28;20116;-53
2022/05/18 09:24:09;;;;;;;39.90;21.30;;;;;;;33.37;49.08;101978.94;5074933;28;20045;-53
2022/05/18 09:26:42;;;;;;;15.63;9.33;;;;;;;34.21;47.72;101980.72;5061061;28;20107;-52
2022/05/18 09:29:24;;;;;;;26.77;16.20;;;;;;;34.79;45.42;101988.66;5062269;28;20054;-54
2022/05/18 09:32:01;;;;;;;33.00;19.20;;;;;;;35.43;43.42;101995.97;5072007;28;20104;-53
2022/05/18 09:34:55;;;;;;;16.35;7.25;;;;;;;34.96;44.44;101985.00;5076780;28;20036;-52
2022/05/18 09:37:45;;;;;;;17.65;8.55;;;;;;;34.57;45.87;101996.09;5042634;28;20034;-51
2022/05/18 09:40:28;;;;;;;12.95;7.53;;;;;;;34.19;45.26;101992.13;5055208;28;20064;-53
2022/05/18 09:43:32;;;;;;;14.00;7.22;;;;;;;35.52;43.17;101993.13;5064643;28;20044;-54
2022/05/18 09:45:58;;;;;;;10.40;5.78;;;;;;;36.05;40.65;101995.47;5034240;28;20041;-52
2022/05/18 09:48:29;;;;;;;16.52;5.93;;;;;;;36.91;39.66;102007.88;5071175;28;20041;-54
2022/05/18 09:50:57;;;;;;;42.17;23.88;;;;;;;39.35;36.26;102012.34;5054412;28;20049;-49
2022/05/18 09:53:22;;;;;;;59.28;34.13;;;;;;;36.98;37.94;102013.66;5051699;28;20104;-53
2022/05/18 09:55:49;;;;;;;112.22;67.13;;;;;;;38.15;36.64;102006.69;5066056;28;20025;-50
2022/05/18 09:58:28;;;;;;;29.13;17.30;;;;;;;37.51;36.56;102007.31;5062833;28;20047;-54
2022/05/18 10:07:27;;;;;;;20.38;10.35;;;;;;;36.64;37.69;102012.97;5058455;28;20044;-54
2022/05/18 10:09:51;;;;;;;34.50;22.98;;;;;;;40.12;32.01;102018.28;5044595;28;20042;-52
2022/05/18 10:12:19;;;;;;;24.73;13.48;;;;;;;39.64;32.22;102012.94;5041282;28;20038;-52
2022/05/18 10:14:56;;;;;;;20.60;13.98;;;;;;;39.63;32.88;102016.94;5045685;28;20055;-52
2022/05/18 10:17:29;;;;;;;13.63;8.30;;;;;;;39.45;31.84;102011.81;5070379;28;20030;-49
2022/05/18 10:20:10;;;;;;;17.33;8.98;;;;;;;40.17;31.92;102011.56;5053538;28;20064;-59
2022/05/18 10:22:41;;;;;;;9.75;4.50;;;;;;;40.21;30.79;102016.03;5072116;28;20040;-52
2022/05/18 10:25:40;;;;;;;10.70;6.22;;;;;;;41.20;29.58;102019.22;5043520;28;20024;-53
2022/05/18 10:28:18;;;;;;;18.92;9.13;;;;;;;42.10;28.42;102008.25;5061786;28;20052;-51
2022/05/18 10:30:53;;;;;;;10.25;6.38;;;;;;;41.69;28.56;102022.22;5075611;28;20029;-54
2022/05/18 10:33:22;;;;;;;9.82;4.55;;;;;;;40.71;29.43;102024.53;5070348;28;20068;-50
2022/05/18 10:35:49;;;;;;;9.10;4.90;;;;;;;40.21;29.63;102012.44;5064896;28;20040;-53
2022/05/18 10:38:25;;;;;;;9.80;4.05;;;;;;;42.22;27.73;102014.78;5062770;28;20100;-51
2022/05/18 10:41:13;;;;;;;25.58;15.68;;;;;;;42.85;27.99;102009.19;5057081;28;20072;-50
2022/05/18 10:43:40;;;;;;;36.55;23.35;;;;;;;41.38;28.88;102008.22;5075699;28;20045;-52
2022/05/18 10:46:17;;;;;;;21.90;13.68;;;;;;;42.49;27.52;101994.94;5063538;28;20104;-48
2022/05/18 10:48:57;;;;;;;19.67;11.07;;;;;;;41.34;28.93;101998.16;5073609;28;20048;-52
2022/05/18 10:51:29;;;;;;;20.58;13.50;;;;;;;40.06;30.17;101997.38;5062337;28;20044;-50
2022/05/18 10:54:07;;;;;;;21.42;12.90;;;;;;;41.16;28.69;101993.13;5067061;28;20049;-54
2022/05/18 10:56:33;;;;;;;12.18;7.78;;;;;;;40.10;29.86;101990.63;5067846;28;20100;-55
2022/05/18 10:59:35;;;;;;;13.13;7.10;;;;;;;39.28;31.44;101993.41;5074039;28;20073;-49
2022/05/18 11:02:03;;;;;;;12.82;7.25;;;;;;;40.06;30.71;101989.78;5063531;28;20041;-53
2022/05/18 11:04:53;;;;;;;12.27;5.95;;;;;;;40.75;30.04;101999.34;5058326;28;20067;-56
2022/05/18 11:07:23;;;;;;;12.73;7.15;;;;;;;41.49;28.80;101996.31;5045450;28;20047;-54
2022/05/18 11:09:49;;;;;;;9.75;4.95;;;;;;;40.11;30.00;101997.84;5065053;28;20029;-51
2022/05/18 11:12:31;;;;;;;12.13;6.50;;;;;;;41.88;28.36;102006.38;5066305;28;20029;-53
2022/05/18 11:15:42;;;;;;;11.95;5.57;;;;;;;41.26;29.06;102000.84;5058133;28;20101;-52
2022/05/18 11:18:54;;;;;;;12.77;6.63;;;;;;;42.73;27.29;102003.94;5059566;28;20071;-53
2022/05/18 11:21:31;;;;;;;11.82;5.57;;;;;;;41.95;27.41;102018.50;5042639;28;20087;-53
2022/05/18 11:24:18;;;;;;;8.25;4.35;;;;;;;41.64;27.23;102016.97;5062717;28;20048;-53
2022/05/18 11:27:06;;;;;;;7.85;4.70;;;;;;;41.31;28.50;102010.16;5053194;28;20056;-54
2022/05/18 11:30:11;;;;;;;8.55;3.83;;;;;;;44.10;24.98;102017.72;5059885;28;20033;-55
2022/05/18 11:32:48;;;;;;;6.07;3.58;;;;;;;43.42;26.34;102005.13;5050423;28;20053;-51
2022/05/18 11:35:53;;;;;;;9.32;4.90;;;;;;;43.33;25.95;102001.84;5043544;28;20456;-53
2022/05/18 11:38:28;;;;;;;7.82;3.95;;;;;;;44.38;25.48;102000.03;5061313;28;20112;-50
2022/05/18 11:41:08;;;;;;;8.65;4.25;;;;;;;43.86;24.53;101994.75;5054331;28;20136;-51
2022/05/18 11:44:04;;;;;;;9.93;4.68;;;;;;;43.24;25.24;101994.56;5061449;28;20041;-50
2022/05/18 11:46:33;;;;;;;9.95;5.43;;;;;;;42.32;25.63;102002.81;5059671;28;20762;-53